Nearby METAR Reports

 

K1V6 - Canon City, Colorado, USA
Distance from station: NE 34mi, 55km
Updated: 06/23/2021 8:55pm MDT
Clear
Clear
 Wind from NE
Wind: NE 6 mph , 9 km/h
Temperature: 82°F , 28°C
Dew Point: 39°F , 4°C
Humidity: 21%
Barometer: 29.96 inHg , 1014.6 hPa
Clouds: Clear
Visibility: 10 miles , 16 km
2021/06/24 02:55 K1V6 240255Z AUTO 04005KT 10SM CLR 28/04 A2996 RMK AO2
K04V - Saguache Muni, Colorado, USA
Distance from station: W 35mi, 56km
Updated: 06/23/2021 8:55pm MDT
Clear
Clear
 Wind from NW
Wind: NW 17 mph , 28 km/h
Temperature: 70°F , 21°C
Dew Point: 37°F , 3°C
Humidity: 31%
Barometer: 30.24 inHg , 1024 hPa
Clouds: Clear
Visibility: 10 miles , 16 km
2021/06/24 02:55 K04V 240255Z AUTO 32015KT 10SM CLR 21/03 A3024 RMK AO2
 
KANK - Salida, Colorado, USA
Distance from station: NW 43mi, 69km
Updated: 06/23/2021 8:55pm MDT
Clear
Clear
 Wind from WSW
Wind: WSW 9 mph , 15 km/h
Temperature: 73°F , 23°C
Dew Point: 36°F , 2°C
Humidity: 25%
Barometer: 30.25 inHg , 1024.4 hPa
Clouds: Clear
Visibility: 10 miles , 16 km
2021/06/24 02:55 KANK 240255Z AUTO 25008KT 10SM CLR 23/02 A3025 RMK AO1 T02260024
KVTP - La Veta Pass, Colorado, USA
Distance from station: SSE 44mi, 71km
Updated: 06/23/2021 8:55pm MDT
Clear
Clear
 Wind from W
Wind: W 7 mph , 11 km/h
Temperature: 63°F , 17°C
Dew Point: 32°F , 0°C
Humidity: 32%
Barometer: 30.40 inHg , 1029.5 hPa
Clouds: Clear
Visibility: 10 miles , 16 km
2021/06/24 02:55 KVTP 240255Z AUTO 26006KT 10SM CLR 17/00 A3040 RMK AO2
 
KALS - Alamosa, Colorado, USA
Distance from station: SSW 48mi, 77km
Updated: 06/23/2021 8:52pm MDT
Clear
Clear
 Wind from SW
Wind: SW 8 mph , 13 km/h
Temperature: 72°F , 22°C
Dew Point: 43°F , 6°C
Humidity: 36%
Barometer: 30.18 inHg , 1022 hPa
Clouds: Clear
Visibility: 10 miles , 16 km
2021/06/24 02:52 KALS 240252Z AUTO 22007KT 10SM CLR 22/06 A3018 RMK AO2 SLP110 T02220056 53003